LIMLLRBS

Guest
Details From LIML - Milano Linate
To LRBS - Bucarest Baneasa
Flight Number -
Tags decoded
Created
Modified
Stats Distance 716 nm / 1,326 km
Max Altitude 0 ft / 0 m
Waypoints 2
Social Downloads 0
Likes 0
Share VATSIM

Download

Looking for another format? Having issues loading an existing format? Contact us
Advertisement - Login to hide

Notes

Requested: LIML FIGAP LRBS

Route

LIML LRBS

ID Type Via Altitude Latitude Longitude Leg Dist Tot Dist Heading (true) Name
O LIML APT - 0 ft / 0 m 45.45030˚ 9.27280˚ - 0 nm - Milano Linate
O LRBS APT - 0 ft / 0 m 44.50319˚ 26.10211˚ 715 nm 715 nm 89° / 100° Bucarest Baneasa

Altitude Profile

Advertisement - Login to hide

Weather


0- 5 10 15 20 25 30 35+ Temperature / ° C

Clouds and Precipitation
Forecast for 2017-12-15 12:00 UTC. Updated an hour ago

Ground ~20,000 ft ~40,000 ft Winds

LIML

Details ICAO LIML (LIN)
Name Milano Linate
Region Italy
Timezone Europe/Rome (UTC+1.0)
Stats Elevation 353 ft / 108 m (AMSL)
Location 45.450302° 9.272801°
Runways 2
Magnetic Variation 2.501° E

METAR

LIML 150750Z 26008KT 220V290 0400 R36/0375N FG SCT002 02/02 Q1000 NOSIG

Decode

TAF

TAF TAF LIML 150500Z 1506/1606 VRB05KT 2000 BR SCT050 TEMPO 1506/1508 0600 BCFG BECMG 1508/1510 6000 TEMPO 1600/1606 1500 BCFG

Decode

Departure Runways

ID Width Length Bearing (true) Bearing (mag) Surface Threshold Offset Overrun Length
17 72 ft / 22 m 1,975 ft / 602 m 175.64° 173.14° Asphalt 200 ft / 61 m 0 ft / 0 m
18 197 ft / 60 m 8,017 ft / 2,443 m 175.67° 173.17° Asphalt 0 ft / 0 m 190 ft / 58 m
35 72 ft / 22 m 1,975 ft / 602 m 355.64° 353.14° Asphalt 200 ft / 61 m 0 ft / 0 m
36 197 ft / 60 m 8,017 ft / 2,443 m 355.68° 353.18° Asphalt 0 ft / 0 m 980 ft / 299 m

LRBS

Details ICAO LRBS (BBU)
Name Bucarest Baneasa
Region Romania
Timezone Europe/Bucharest (UTC+2.0)
Stats Elevation 297 ft / 91 m (AMSL)
Location 44.503193° 26.102113°
Runways 1
Magnetic Variation 5.595° E

METAR

LRBS 150800Z 00000KT CAVOK 07/06 Q1012 R07/19//95 NOSIG

Decode

TAF

TAF TAF LRBS 150500Z 1506/1606 25008KT 1500 BR NSC PROB40 TEMPO 1506/1507 0600 FG BKN002 BECMG 1507/1509 5000 BECMG 1509/1511 9999 NSW BECMG 1519/1521 3000 BR BKN010 BECMG 1521/1523 1500 BR BKN005 TEMPO 1602/1606 0600 FG BKN002

Decode

Destination Runways

ID Width Length Bearing (true) Bearing (mag) Surface Threshold Offset Overrun Length
07 148 ft / 45 m 10,480 ft / 3,194 m 73.93° 68.33° Concrete 787 ft / 240 m 0 ft / 0 m
25 148 ft / 45 m 10,480 ft / 3,194 m 253.96° 248.36° Concrete 2,609 ft / 795 m 0 ft / 0 m

Approach Navaids

Runway Type Ident Frequency Range Bearing (true) Bearing (mag) Slope Elevation
07 Localiser IBS 109.50 MHz 18 nm / 33 km 73.94° 68.34° - 297 ft / 91 m (AMSL)
07 Glidescope IBS 109.50 MHz 10 nm / 19 km 73.95° 68.35° 3.00° 297 ft / 91 m (AMSL)

Popular Alternatives